Terminal Aerodrome Forecast
Issued by NWS Sioux Falls, SD

Home | Current Version | Previous Version | Graphics & Text | Print | Product List | Glossary On
Versions: 1 2 3 4 5 6 7 8 9 10 11 12 13 14 15 16 17 18 19 20
000
FTUS43 KFSD 310918 AAB
TAFFSD
TAF AMD
KFSD 310918Z 3109/0106 18010KT P6SM FEW006 SCT250
      TEMPO 3111/3114 4SM BR
     FM311430 18013G18KT P6SM SCT010 BKN200
     FM311600 18013G20KT P6SM BKN200
     FM312300 17008KT P6SM BKN150=

USA.gov is the U.S. government's official web portal to all federal, state and local government web resources and services.